sensor_id;sensor_type;location;lat;lon;timestamp;P1;durP1;ratioP1;P2;durP2;ratioP2
10479;SDS011;12789;42.610;23.040;2023-01-19T00:00:25;32.17;;;5.38;;
10479;SDS011;12789;42.610;23.040;2023-01-19T00:02:52;30.25;;;5.55;;
10479;SDS011;12789;42.610;23.040;2023-01-19T00:05:19;25.38;;;4.82;;
10479;SDS011;12789;42.610;23.040;2023-01-19T00:07:46;30.95;;;5.25;;
10479;SDS011;12789;42.610;23.040;2023-01-19T00:10:13;29.90;;;5.40;;
10479;SDS011;12789;42.610;23.040;2023-01-19T00:12:40;30.03;;;6.03;;
10479;SDS011;12789;42.610;23.040;2023-01-19T00:15:09;19.80;;;5.75;;
10479;SDS011;12789;42.610;23.040;2023-01-19T00:17:37;35.57;;;5.07;;
10479;SDS011;12789;42.610;23.040;2023-01-19T00:20:07;22.10;;;4.43;;
10479;SDS011;12789;42.610;23.040;2023-01-19T00:22:34;29.23;;;5.38;;
10479;SDS011;12789;42.610;23.040;2023-01-19T00:25:01;34.92;;;5.90;;
10479;SDS011;12789;42.610;23.040;2023-01-19T00:27:27;32.03;;;4.93;;
10479;SDS011;12789;42.610;23.040;2023-01-19T00:29:59;37.17;;;6.67;;
10479;SDS011;12789;42.610;23.040;2023-01-19T00:32:27;25.07;;;4.30;;
10479;SDS011;12789;42.610;23.040;2023-01-19T00:34:54;29.37;;;4.57;;
10479;SDS011;12789;42.610;23.040;2023-01-19T00:37:21;31.63;;;5.23;;
10479;SDS011;12789;42.610;23.040;2023-01-19T00:39:48;24.80;;;4.27;;
10479;SDS011;12789;42.610;23.040;2023-01-19T00:42:15;37.28;;;6.35;;
10479;SDS011;12789;42.610;23.040;2023-01-19T00:45:06;35.65;;;5.30;;
10479;SDS011;12789;42.610;23.040;2023-01-19T00:47:38;35.43;;;5.80;;
10479;SDS011;12789;42.610;23.040;2023-01-19T00:50:06;29.73;;;4.53;;
10479;SDS011;12789;42.610;23.040;2023-01-19T00:52:33;33.97;;;5.33;;
10479;SDS011;12789;42.610;23.040;2023-01-19T00:55:00;27.53;;;5.33;;
10479;SDS011;12789;42.610;23.040;2023-01-19T00:57:27;16.83;;;3.70;;
10479;SDS011;12789;42.610;23.040;2023-01-19T00:59:54;32.17;;;5.63;;
10479;SDS011;12789;42.610;23.040;2023-01-19T01:02:21;36.63;;;6.27;;
10479;SDS011;12789;42.610;23.040;2023-01-19T01:04:50;33.45;;;5.15;;
10479;SDS011;12789;42.610;23.040;2023-01-19T01:07:23;37.37;;;5.60;;
10479;SDS011;12789;42.610;23.040;2023-01-19T01:09:50;18.30;;;3.70;;
10479;SDS011;12789;42.610;23.040;2023-01-19T01:12:17;29.20;;;4.67;;
10479;SDS011;12789;42.610;23.040;2023-01-19T01:14:55;36.33;;;5.33;;
10479;SDS011;12789;42.610;23.040;2023-01-19T01:17:25;33.40;;;5.07;;
10479;SDS011;12789;42.610;23.040;2023-01-19T01:19:53;25.87;;;5.17;;
10479;SDS011;12789;42.610;23.040;2023-01-19T01:22:20;28.70;;;5.23;;
10479;SDS011;12789;42.610;23.040;2023-01-19T01:24:48;38.17;;;6.67;;
10479;SDS011;12789;42.610;23.040;2023-01-19T01:27:15;31.77;;;5.00;;
10479;SDS011;12789;42.610;23.040;2023-01-19T01:29:43;30.70;;;4.65;;
10479;SDS011;12789;42.610;23.040;2023-01-19T01:32:11;28.47;;;5.57;;
10479;SDS011;12789;42.610;23.040;2023-01-19T01:34:45;36.90;;;5.03;;
10479;SDS011;12789;42.610;23.040;2023-01-19T01:37:24;26.98;;;4.07;;
10479;SDS011;12789;42.610;23.040;2023-01-19T01:39:51;35.75;;;6.03;;
10479;SDS011;12789;42.610;23.040;2023-01-19T01:42:23;27.52;;;4.95;;
10479;SDS011;12789;42.610;23.040;2023-01-19T01:44:52;29.10;;;5.57;;
10479;SDS011;12789;42.610;23.040;2023-01-19T01:47:27;32.03;;;5.50;;
10479;SDS011;12789;42.610;23.040;2023-01-19T01:49:58;28.20;;;4.78;;
10479;SDS011;12789;42.610;23.040;2023-01-19T01:52:32;30.38;;;4.85;;
10479;SDS011;12789;42.610;23.040;2023-01-19T01:54:59;21.38;;;4.70;;
10479;SDS011;12789;42.610;23.040;2023-01-19T01:57:31;33.45;;;5.30;;
10479;SDS011;12789;42.610;23.040;2023-01-19T02:00:04;29.10;;;6.18;;
10479;SDS011;12789;42.610;23.040;2023-01-19T02:02:35;39.28;;;4.93;;
10479;SDS011;12789;42.610;23.040;2023-01-19T02:05:20;33.38;;;4.95;;
10479;SDS011;12789;42.610;23.040;2023-01-19T02:07:57;39.47;;;4.78;;
10479;SDS011;12789;42.610;23.040;2023-01-19T02:10:43;28.03;;;4.37;;
10479;SDS011;12789;42.610;23.040;2023-01-19T02:13:27;27.42;;;4.63;;
10479;SDS011;12789;42.610;23.040;2023-01-19T02:15:55;24.25;;;5.25;;
10479;SDS011;12789;42.610;23.040;2023-01-19T02:18:23;25.30;;;5.60;;
10479;SDS011;12789;42.610;23.040;2023-01-19T02:20:52;23.83;;;4.30;;
10479;SDS011;12789;42.610;23.040;2023-01-19T02:23:31;26.93;;;4.47;;
10479;SDS011;12789;42.610;23.040;2023-01-19T02:26:00;28.65;;;4.72;;
10479;SDS011;12789;42.610;23.040;2023-01-19T02:28:28;25.02;;;4.43;;
10479;SDS011;12789;42.610;23.040;2023-01-19T02:30:55;34.00;;;5.70;;
10479;SDS011;12789;42.610;23.040;2023-01-19T02:33:23;28.30;;;4.97;;
10479;SDS011;12789;42.610;23.040;2023-01-19T02:35:50;26.38;;;4.95;;
10479;SDS011;12789;42.610;23.040;2023-01-19T02:38:21;33.30;;;5.07;;
10479;SDS011;12789;42.610;23.040;2023-01-19T02:41:04;40.80;;;5.60;;
10479;SDS011;12789;42.610;23.040;2023-01-19T02:43:36;24.38;;;4.72;;
10479;SDS011;12789;42.610;23.040;2023-01-19T02:46:04;24.40;;;4.63;;
10479;SDS011;12789;42.610;23.040;2023-01-19T02:48:31;19.60;;;4.38;;
10479;SDS011;12789;42.610;23.040;2023-01-19T02:50:59;33.63;;;5.47;;
10479;SDS011;12789;42.610;23.040;2023-01-19T02:59:07;35.38;;;5.60;;
10479;SDS011;12789;42.610;23.040;2023-01-19T03:01:39;30.08;;;4.95;;
10479;SDS011;12789;42.610;23.040;2023-01-19T03:04:12;32.30;;;4.35;;
10479;SDS011;12789;42.610;23.040;2023-01-19T03:06:43;27.63;;;5.35;;
10479;SDS011;12789;42.610;23.040;2023-01-19T03:09:13;32.28;;;5.18;;
10479;SDS011;12789;42.610;23.040;2023-01-19T03:11:45;27.73;;;4.32;;
10479;SDS011;12789;42.610;23.040;2023-01-19T03:14:16;35.67;;;5.20;;
10479;SDS011;12789;42.610;23.040;2023-01-19T03:16:45;26.95;;;3.47;;
10479;SDS011;12789;42.610;23.040;2023-01-19T03:19:14;35.63;;;4.28;;
10479;SDS011;12789;42.610;23.040;2023-01-19T03:21:44;24.65;;;4.30;;
10479;SDS011;12789;42.610;23.040;2023-01-19T03:24:11;25.73;;;4.75;;
10479;SDS011;12789;42.610;23.040;2023-01-19T03:26:40;32.13;;;4.50;;
10479;SDS011;12789;42.610;23.040;2023-01-19T03:29:08;26.85;;;4.07;;
10479;SDS011;12789;42.610;23.040;2023-01-19T03:31:38;30.67;;;4.60;;
10479;SDS011;12789;42.610;23.040;2023-01-19T03:34:09;27.15;;;5.07;;
10479;SDS011;12789;42.610;23.040;2023-01-19T03:36:39;29.63;;;5.05;;
10479;SDS011;12789;42.610;23.040;2023-01-19T03:39:08;30.45;;;5.50;;
10479;SDS011;12789;42.610;23.040;2023-01-19T03:41:35;37.63;;;4.82;;
10479;SDS011;12789;42.610;23.040;2023-01-19T03:44:03;31.02;;;5.28;;
10479;SDS011;12789;42.610;23.040;2023-01-19T03:46:31;25.73;;;4.40;;
10479;SDS011;12789;42.610;23.040;2023-01-19T03:49:00;23.15;;;4.53;;
10479;SDS011;12789;42.610;23.040;2023-01-19T03:51:27;32.33;;;4.72;;
10479;SDS011;12789;42.610;23.040;2023-01-19T03:53:54;26.60;;;4.90;;
10479;SDS011;12789;42.610;23.040;2023-01-19T03:56:21;21.52;;;4.32;;
10479;SDS011;12789;42.610;23.040;2023-01-19T03:58:49;28.98;;;4.45;;
10479;SDS011;12789;42.610;23.040;2023-01-19T04:01:17;28.77;;;4.70;;
10479;SDS011;12789;42.610;23.040;2023-01-19T04:03:46;36.65;;;4.60;;
10479;SDS011;12789;42.610;23.040;2023-01-19T04:06:16;26.40;;;4.50;;
10479;SDS011;12789;42.610;23.040;2023-01-19T04:08:43;34.42;;;5.18;;
10479;SDS011;12789;42.610;23.040;2023-01-19T04:11:10;24.58;;;4.15;;
10479;SDS011;12789;42.610;23.040;2023-01-19T04:13:37;33.53;;;4.40;;
10479;SDS011;12789;42.610;23.040;2023-01-19T04:16:06;35.88;;;5.90;;
10479;SDS011;12789;42.610;23.040;2023-01-19T04:18:35;35.00;;;5.35;;
10479;SDS011;12789;42.610;23.040;2023-01-19T04:21:03;33.05;;;4.53;;
10479;SDS011;12789;42.610;23.040;2023-01-19T04:23:33;26.58;;;4.05;;
10479;SDS011;12789;42.610;23.040;2023-01-19T04:26:03;20.55;;;4.03;;
10479;SDS011;12789;42.610;23.040;2023-01-19T04:28:30;27.05;;;4.97;;
10479;SDS011;12789;42.610;23.040;2023-01-19T04:31:01;19.20;;;4.57;;
10479;SDS011;12789;42.610;23.040;2023-01-19T04:33:29;33.97;;;5.43;;
10479;SDS011;12789;42.610;23.040;2023-01-19T04:35:56;35.35;;;5.13;;
10479;SDS011;12789;42.610;23.040;2023-01-19T04:38:26;40.53;;;5.45;;
10479;SDS011;12789;42.610;23.040;2023-01-19T04:40:55;19.98;;;3.58;;
10479;SDS011;12789;42.610;23.040;2023-01-19T04:43:22;27.08;;;4.72;;
10479;SDS011;12789;42.610;23.040;2023-01-19T04:45:49;42.53;;;5.38;;
10479;SDS011;12789;42.610;23.040;2023-01-19T04:48:17;26.13;;;5.13;;
10479;SDS011;12789;42.610;23.040;2023-01-19T04:50:46;32.23;;;5.60;;
10479;SDS011;12789;42.610;23.040;2023-01-19T04:53:13;30.83;;;4.43;;
10479;SDS011;12789;42.610;23.040;2023-01-19T04:55:42;36.22;;;4.85;;
10479;SDS011;12789;42.610;23.040;2023-01-19T04:58:12;27.38;;;5.18;;
10479;SDS011;12789;42.610;23.040;2023-01-19T05:00:40;28.27;;;4.70;;
10479;SDS011;12789;42.610;23.040;2023-01-19T05:03:07;29.83;;;5.93;;
10479;SDS011;12789;42.610;23.040;2023-01-19T05:05:34;27.38;;;4.57;;
10479;SDS011;12789;42.610;23.040;2023-01-19T05:08:01;24.67;;;4.85;;
10479;SDS011;12789;42.610;23.040;2023-01-19T05:10:28;35.97;;;5.07;;
10479;SDS011;12789;42.610;23.040;2023-01-19T05:12:55;34.70;;;5.20;;
10479;SDS011;12789;42.610;23.040;2023-01-19T05:15:28;32.00;;;4.97;;
10479;SDS011;12789;42.610;23.040;2023-01-19T05:17:56;35.08;;;4.65;;
10479;SDS011;12789;42.610;23.040;2023-01-19T05:20:25;30.67;;;5.15;;
10479;SDS011;12789;42.610;23.040;2023-01-19T05:22:51;21.40;;;4.95;;
10479;SDS011;12789;42.610;23.040;2023-01-19T05:25:18;23.90;;;4.30;;
10479;SDS011;12789;42.610;23.040;2023-01-19T05:27:49;23.23;;;4.50;;
10479;SDS011;12789;42.610;23.040;2023-01-19T05:30:16;33.70;;;4.77;;
10479;SDS011;12789;42.610;23.040;2023-01-19T05:32:45;33.57;;;5.30;;
10479;SDS011;12789;42.610;23.040;2023-01-19T05:35:12;26.97;;;5.83;;
10479;SDS011;12789;42.610;23.040;2023-01-19T05:37:40;25.93;;;4.93;;
10479;SDS011;12789;42.610;23.040;2023-01-19T05:40:09;34.93;;;5.17;;
10479;SDS011;12789;42.610;23.040;2023-01-19T05:42:38;30.47;;;5.40;;
10479;SDS011;12789;42.610;23.040;2023-01-19T05:45:05;39.73;;;5.60;;
10479;SDS011;12789;42.610;23.040;2023-01-19T05:47:33;32.42;;;4.18;;
10479;SDS011;12789;42.610;23.040;2023-01-19T05:50:01;43.10;;;5.33;;
10479;SDS011;12789;42.610;23.040;2023-01-19T05:52:28;33.90;;;6.13;;
10479;SDS011;12789;42.610;23.040;2023-01-19T05:54:55;42.00;;;5.97;;
10479;SDS011;12789;42.610;23.040;2023-01-19T05:57:24;46.13;;;5.97;;
10479;SDS011;12789;42.610;23.040;2023-01-19T05:59:51;46.28;;;5.82;;
10479;SDS011;12789;42.610;23.040;2023-01-19T06:02:20;35.80;;;6.53;;
10479;SDS011;12789;42.610;23.040;2023-01-19T06:04:53;30.90;;;5.80;;
10479;SDS011;12789;42.610;23.040;2023-01-19T06:07:24;38.60;;;5.90;;
10479;SDS011;12789;42.610;23.040;2023-01-19T06:09:52;36.80;;;6.50;;
10479;SDS011;12789;42.610;23.040;2023-01-19T06:12:19;33.67;;;5.60;;
10479;SDS011;12789;42.610;23.040;2023-01-19T06:14:47;32.60;;;5.47;;
10479;SDS011;12789;42.610;23.040;2023-01-19T06:17:14;39.10;;;5.90;;
10479;SDS011;12789;42.610;23.040;2023-01-19T06:19:44;39.47;;;5.50;;
10479;SDS011;12789;42.610;23.040;2023-01-19T06:22:13;36.80;;;5.80;;
10479;SDS011;12789;42.610;23.040;2023-01-19T06:24:41;35.80;;;5.80;;
10479;SDS011;12789;42.610;23.040;2023-01-19T06:27:08;44.67;;;6.23;;
10479;SDS011;12789;42.610;23.040;2023-01-19T06:29:35;30.17;;;5.40;;
10479;SDS011;12789;42.610;23.040;2023-01-19T06:32:02;43.23;;;6.57;;
10479;SDS011;12789;42.610;23.040;2023-01-19T06:34:30;49.63;;;6.28;;
10479;SDS011;12789;42.610;23.040;2023-01-19T06:36:57;56.10;;;7.05;;
10479;SDS011;12789;42.610;23.040;2023-01-19T06:39:24;56.20;;;7.50;;
10479;SDS011;12789;42.610;23.040;2023-01-19T06:41:53;46.80;;;5.97;;
10479;SDS011;12789;42.610;23.040;2023-01-19T06:44:20;46.50;;;6.43;;
10479;SDS011;12789;42.610;23.040;2023-01-19T06:46:46;49.00;;;8.77;;
10479;SDS011;12789;42.610;23.040;2023-01-19T06:49:14;29.52;;;7.75;;
10479;SDS011;12789;42.610;23.040;2023-01-19T06:51:41;44.55;;;8.43;;
10479;SDS011;12789;42.610;23.040;2023-01-19T06:54:08;46.00;;;8.43;;
10479;SDS011;12789;42.610;23.040;2023-01-19T06:56:34;52.95;;;8.60;;
10479;SDS011;12789;42.610;23.040;2023-01-19T06:59:14;39.38;;;7.70;;
10479;SDS011;12789;42.610;23.040;2023-01-19T07:01:43;61.83;;;9.75;;
10479;SDS011;12789;42.610;23.040;2023-01-19T07:04:14;43.53;;;8.73;;
10479;SDS011;12789;42.610;23.040;2023-01-19T07:06:55;51.37;;;9.23;;
10479;SDS011;12789;42.610;23.040;2023-01-19T07:09:23;43.65;;;8.55;;
10479;SDS011;12789;42.610;23.040;2023-01-19T07:11:52;41.15;;;7.22;;
10479;SDS011;12789;42.610;23.040;2023-01-19T07:14:26;54.45;;;7.95;;
10479;SDS011;12789;42.610;23.040;2023-01-19T07:16:57;37.08;;;7.03;;
10479;SDS011;12789;42.610;23.040;2023-01-19T07:22:10;41.10;;;7.90;;
10479;SDS011;12789;42.610;23.040;2023-01-19T07:24:37;52.30;;;7.40;;
10479;SDS011;12789;42.610;23.040;2023-01-19T07:27:08;60.05;;;7.65;;
10479;SDS011;12789;42.610;23.040;2023-01-19T07:29:54;49.25;;;8.27;;
10479;SDS011;12789;42.610;23.040;2023-01-19T07:32:22;39.35;;;9.65;;
10479;SDS011;12789;42.610;23.040;2023-01-19T07:34:53;66.55;;;9.70;;
10479;SDS011;12789;42.610;23.040;2023-01-19T07:37:34;42.83;;;8.95;;
10479;SDS011;12789;42.610;23.040;2023-01-19T07:40:02;34.22;;;7.63;;
10479;SDS011;12789;42.610;23.040;2023-01-19T07:42:29;55.10;;;8.88;;
10479;SDS011;12789;42.610;23.040;2023-01-19T07:44:59;43.15;;;7.68;;
10479;SDS011;12789;42.610;23.040;2023-01-19T07:47:26;43.53;;;6.93;;
10479;SDS011;12789;42.610;23.040;2023-01-19T07:49:53;50.13;;;8.80;;
10479;SDS011;12789;42.610;23.040;2023-01-19T07:52:23;59.08;;;7.82;;
10479;SDS011;12789;42.610;23.040;2023-01-19T07:54:50;36.38;;;7.18;;
10479;SDS011;12789;42.610;23.040;2023-01-19T07:57:17;40.63;;;7.38;;
10479;SDS011;12789;42.610;23.040;2023-01-19T07:59:45;48.05;;;7.40;;
10479;SDS011;12789;42.610;23.040;2023-01-19T08:02:13;36.08;;;6.43;;
10479;SDS011;12789;42.610;23.040;2023-01-19T08:04:46;41.50;;;8.02;;
10479;SDS011;12789;42.610;23.040;2023-01-19T08:07:13;37.65;;;6.95;;
10479;SDS011;12789;42.610;23.040;2023-01-19T08:09:40;40.38;;;8.73;;
10479;SDS011;12789;42.610;23.040;2023-01-19T08:12:08;41.97;;;7.47;;
10479;SDS011;12789;42.610;23.040;2023-01-19T08:14:35;45.85;;;7.13;;
10479;SDS011;12789;42.610;23.040;2023-01-19T08:17:03;36.88;;;7.57;;
10479;SDS011;12789;42.610;23.040;2023-01-19T08:19:31;35.47;;;7.90;;
10479;SDS011;12789;42.610;23.040;2023-01-19T08:21:58;44.50;;;7.30;;
10479;SDS011;12789;42.610;23.040;2023-01-19T08:24:26;46.40;;;6.93;;
10479;SDS011;12789;42.610;23.040;2023-01-19T08:26:58;40.55;;;6.65;;
10479;SDS011;12789;42.610;23.040;2023-01-19T08:29:26;43.85;;;7.28;;
10479;SDS011;12789;42.610;23.040;2023-01-19T08:31:54;36.80;;;7.57;;
10479;SDS011;12789;42.610;23.040;2023-01-19T08:34:24;31.90;;;5.93;;
10479;SDS011;12789;42.610;23.040;2023-01-19T08:36:52;39.42;;;6.78;;
10479;SDS011;12789;42.610;23.040;2023-01-19T08:39:22;39.38;;;6.30;;
10479;SDS011;12789;42.610;23.040;2023-01-19T08:41:51;42.13;;;7.32;;
10479;SDS011;12789;42.610;23.040;2023-01-19T08:44:18;32.33;;;6.07;;
10479;SDS011;12789;42.610;23.040;2023-01-19T08:46:45;31.25;;;6.53;;
10479;SDS011;12789;42.610;23.040;2023-01-19T08:49:13;35.20;;;5.32;;
10479;SDS011;12789;42.610;23.040;2023-01-19T08:51:40;37.13;;;7.50;;
10479;SDS011;12789;42.610;23.040;2023-01-19T08:54:11;43.22;;;6.53;;
10479;SDS011;12789;42.610;23.040;2023-01-19T08:56:39;36.90;;;10.00;;
10479;SDS011;12789;42.610;23.040;2023-01-19T08:59:06;24.58;;;6.15;;
10479;SDS011;12789;42.610;23.040;2023-01-19T09:01:33;36.92;;;7.60;;
10479;SDS011;12789;42.610;23.040;2023-01-19T09:04:01;37.03;;;7.88;;
10479;SDS011;12789;42.610;23.040;2023-01-19T09:06:28;30.50;;;6.53;;
10479;SDS011;12789;42.610;23.040;2023-01-19T09:08:55;41.08;;;7.25;;
10479;SDS011;12789;42.610;23.040;2023-01-19T09:11:24;36.85;;;7.95;;
10479;SDS011;12789;42.610;23.040;2023-01-19T09:13:51;32.42;;;7.13;;
10479;SDS011;12789;42.610;23.040;2023-01-19T09:16:18;39.83;;;6.50;;
10479;SDS011;12789;42.610;23.040;2023-01-19T09:18:45;40.78;;;6.40;;
10479;SDS011;12789;42.610;23.040;2023-01-19T09:21:12;34.28;;;7.03;;
10479;SDS011;12789;42.610;23.040;2023-01-19T09:23:39;31.25;;;6.45;;
10479;SDS011;12789;42.610;23.040;2023-01-19T09:26:06;30.13;;;5.03;;
10479;SDS011;12789;42.610;23.040;2023-01-19T09:28:34;32.45;;;5.93;;
10479;SDS011;12789;42.610;23.040;2023-01-19T09:31:05;29.85;;;5.65;;
10479;SDS011;12789;42.610;23.040;2023-01-19T09:33:32;32.35;;;5.97;;
10479;SDS011;12789;42.610;23.040;2023-01-19T09:35:59;28.98;;;7.43;;
10479;SDS011;12789;42.610;23.040;2023-01-19T09:38:27;41.13;;;7.82;;
10479;SDS011;12789;42.610;23.040;2023-01-19T09:40:57;30.30;;;5.32;;
10479;SDS011;12789;42.610;23.040;2023-01-19T09:43:29;31.70;;;6.18;;
10479;SDS011;12789;42.610;23.040;2023-01-19T09:46:01;29.92;;;6.28;;
10479;SDS011;12789;42.610;23.040;2023-01-19T09:48:29;32.45;;;6.70;;
10479;SDS011;12789;42.610;23.040;2023-01-19T09:50:59;35.63;;;5.80;;
10479;SDS011;12789;42.610;23.040;2023-01-19T09:53:32;46.35;;;7.25;;
10479;SDS011;12789;42.610;23.040;2023-01-19T09:55:59;31.75;;;6.15;;
10479;SDS011;12789;42.610;23.040;2023-01-19T09:58:26;29.25;;;5.65;;
10479;SDS011;12789;42.610;23.040;2023-01-19T10:00:55;30.85;;;5.57;;
10479;SDS011;12789;42.610;23.040;2023-01-19T10:03:26;38.17;;;6.03;;
10479;SDS011;12789;42.610;23.040;2023-01-19T10:05:53;29.75;;;5.55;;
10479;SDS011;12789;42.610;23.040;2023-01-19T10:08:23;23.23;;;5.28;;
10479;SDS011;12789;42.610;23.040;2023-01-19T10:10:53;38.42;;;6.72;;
10479;SDS011;12789;42.610;23.040;2023-01-19T10:13:24;32.53;;;5.68;;
10479;SDS011;12789;42.610;23.040;2023-01-19T10:15:56;38.78;;;5.55;;
10479;SDS011;12789;42.610;23.040;2023-01-19T10:18:26;32.78;;;4.95;;
10479;SDS011;12789;42.610;23.040;2023-01-19T10:20:59;28.88;;;5.78;;
10479;SDS011;12789;42.610;23.040;2023-01-19T10:23:35;21.27;;;5.15;;
10479;SDS011;12789;42.610;23.040;2023-01-19T10:26:05;33.08;;;5.55;;
10479;SDS011;12789;42.610;23.040;2023-01-19T10:28:34;19.17;;;4.60;;
10479;SDS011;12789;42.610;23.040;2023-01-19T10:31:02;20.58;;;4.63;;
10479;SDS011;12789;42.610;23.040;2023-01-19T10:33:32;35.78;;;5.45;;
10479;SDS011;12789;42.610;23.040;2023-01-19T10:36:01;24.90;;;4.00;;
10479;SDS011;12789;42.610;23.040;2023-01-19T10:38:28;24.63;;;5.13;;
10479;SDS011;12789;42.610;23.040;2023-01-19T10:40:58;25.20;;;6.05;;
10479;SDS011;12789;42.610;23.040;2023-01-19T10:43:35;30.63;;;4.95;;
10479;SDS011;12789;42.610;23.040;2023-01-19T10:46:04;23.60;;;4.70;;
10479;SDS011;12789;42.610;23.040;2023-01-19T10:48:37;19.75;;;4.70;;
10479;SDS011;12789;42.610;23.040;2023-01-19T10:51:04;35.03;;;4.78;;
10479;SDS011;12789;42.610;23.040;2023-01-19T10:53:31;19.25;;;4.68;;
10479;SDS011;12789;42.610;23.040;2023-01-19T10:56:12;26.30;;;4.72;;
10479;SDS011;12789;42.610;23.040;2023-01-19T10:58:39;24.50;;;5.85;;
10479;SDS011;12789;42.610;23.040;2023-01-19T11:01:14;21.90;;;3.78;;
10479;SDS011;12789;42.610;23.040;2023-01-19T11:03:42;24.00;;;4.45;;
10479;SDS011;12789;42.610;23.040;2023-01-19T11:06:18;19.58;;;5.35;;
10479;SDS011;12789;42.610;23.040;2023-01-19T11:08:46;26.55;;;5.03;;
10479;SDS011;12789;42.610;23.040;2023-01-19T11:11:16;31.63;;;6.53;;
10479;SDS011;12789;42.610;23.040;2023-01-19T11:13:46;23.40;;;5.07;;
10479;SDS011;12789;42.610;23.040;2023-01-19T11:16:27;18.33;;;3.72;;
10479;SDS011;12789;42.610;23.040;2023-01-19T11:18:58;21.58;;;4.55;;
10479;SDS011;12789;42.610;23.040;2023-01-19T11:21:27;29.70;;;4.65;;
10479;SDS011;12789;42.610;23.040;2023-01-19T11:23:55;22.00;;;4.90;;
10479;SDS011;12789;42.610;23.040;2023-01-19T11:26:24;18.40;;;3.33;;
10479;SDS011;12789;42.610;23.040;2023-01-19T11:28:52;22.17;;;4.60;;
10479;SDS011;12789;42.610;23.040;2023-01-19T11:31:28;32.42;;;5.10;;
10479;SDS011;12789;42.610;23.040;2023-01-19T11:33:59;24.08;;;4.65;;
10479;SDS011;12789;42.610;23.040;2023-01-19T11:36:27;18.83;;;4.80;;
10479;SDS011;12789;42.610;23.040;2023-01-19T11:38:54;23.65;;;4.93;;
10479;SDS011;12789;42.610;23.040;2023-01-19T11:41:22;21.65;;;4.05;;
10479;SDS011;12789;42.610;23.040;2023-01-19T11:43:52;16.80;;;3.75;;
10479;SDS011;12789;42.610;23.040;2023-01-19T11:46:19;28.38;;;4.43;;
10479;SDS011;12789;42.610;23.040;2023-01-19T11:48:47;17.55;;;4.10;;
10479;SDS011;12789;42.610;23.040;2023-01-19T11:51:18;22.45;;;4.03;;
10479;SDS011;12789;42.610;23.040;2023-01-19T11:53:47;25.25;;;7.68;;
10479;SDS011;12789;42.610;23.040;2023-01-19T11:56:17;14.77;;;4.03;;
10479;SDS011;12789;42.610;23.040;2023-01-19T11:58:47;20.30;;;4.15;;
10479;SDS011;12789;42.610;23.040;2023-01-19T12:01:16;19.52;;;4.15;;
10479;SDS011;12789;42.610;23.040;2023-01-19T12:03:45;25.13;;;4.32;;
10479;SDS011;12789;42.610;23.040;2023-01-19T12:06:15;21.95;;;4.18;;
10479;SDS011;12789;42.610;23.040;2023-01-19T12:08:45;17.95;;;3.95;;
10479;SDS011;12789;42.610;23.040;2023-01-19T12:11:14;23.83;;;4.15;;
10479;SDS011;12789;42.610;23.040;2023-01-19T12:13:42;24.20;;;3.55;;
10479;SDS011;12789;42.610;23.040;2023-01-19T12:16:10;17.00;;;3.40;;
10479;SDS011;12789;42.610;23.040;2023-01-19T12:18:38;16.25;;;3.45;;
10479;SDS011;12789;42.610;23.040;2023-01-19T12:21:06;15.95;;;3.33;;
10479;SDS011;12789;42.610;23.040;2023-01-19T12:23:42;17.20;;;4.03;;
10479;SDS011;12789;42.610;23.040;2023-01-19T12:29:04;19.98;;;4.72;;
10479;SDS011;12789;42.610;23.040;2023-01-19T12:31:31;19.60;;;4.57;;
10479;SDS011;12789;42.610;23.040;2023-01-19T12:36:44;19.77;;;5.60;;
10479;SDS011;12789;42.610;23.040;2023-01-19T12:39:13;14.50;;;4.25;;
10479;SDS011;12789;42.610;23.040;2023-01-19T12:41:42;14.88;;;4.05;;
10479;SDS011;12789;42.610;23.040;2023-01-19T12:44:23;15.35;;;4.00;;
10479;SDS011;12789;42.610;23.040;2023-01-19T12:46:54;20.77;;;3.78;;
10479;SDS011;12789;42.610;23.040;2023-01-19T12:49:27;14.75;;;3.60;;
10479;SDS011;12789;42.610;23.040;2023-01-19T12:52:09;14.75;;;3.58;;
10479;SDS011;12789;42.610;23.040;2023-01-19T12:54:37;10.68;;;3.53;;
10479;SDS011;12789;42.610;23.040;2023-01-19T12:57:07;19.45;;;3.13;;
10479;SDS011;12789;42.610;23.040;2023-01-19T12:59:36;16.88;;;4.43;;
10479;SDS011;12789;42.610;23.040;2023-01-19T13:13:24;11.32;;;3.13;;
10479;SDS011;12789;42.610;23.040;2023-01-19T13:15:53;25.25;;;7.65;;
10479;SDS011;12789;42.610;23.040;2023-01-19T13:18:21;18.35;;;5.55;;
10479;SDS011;12789;42.610;23.040;2023-01-19T13:20:49;14.80;;;4.45;;
10479;SDS011;12789;42.610;23.040;2023-01-19T13:23:20;14.95;;;4.68;;
10479;SDS011;12789;42.610;23.040;2023-01-19T13:25:48;13.73;;;5.00;;
10479;SDS011;12789;42.610;23.040;2023-01-19T13:28:17;17.30;;;5.75;;
10479;SDS011;12789;42.610;23.040;2023-01-19T13:30:50;16.05;;;4.47;;
10479;SDS011;12789;42.610;23.040;2023-01-19T13:33:20;14.50;;;5.25;;
10479;SDS011;12789;42.610;23.040;2023-01-19T13:35:50;13.30;;;3.25;;
10479;SDS011;12789;42.610;23.040;2023-01-19T13:38:18;15.18;;;4.88;;
10479;SDS011;12789;42.610;23.040;2023-01-19T13:40:45;17.38;;;5.45;;
10479;SDS011;12789;42.610;23.040;2023-01-19T13:43:14;16.65;;;4.20;;
10479;SDS011;12789;42.610;23.040;2023-01-19T13:45:45;16.02;;;4.95;;
10479;SDS011;12789;42.610;23.040;2023-01-19T13:48:13;13.55;;;3.70;;
10479;SDS011;12789;42.610;23.040;2023-01-19T13:50:43;9.20;;;3.67;;
10479;SDS011;12789;42.610;23.040;2023-01-19T13:53:21;11.90;;;3.58;;
10479;SDS011;12789;42.610;23.040;2023-01-19T13:58:30;10.93;;;3.25;;
10479;SDS011;12789;42.610;23.040;2023-01-19T14:00:57;12.93;;;3.50;;
10479;SDS011;12789;42.610;23.040;2023-01-19T14:03:24;15.82;;;5.72;;
10479;SDS011;12789;42.610;23.040;2023-01-19T14:05:53;16.90;;;5.35;;
10479;SDS011;12789;42.610;23.040;2023-01-19T14:08:20;17.38;;;6.85;;
10479;SDS011;12789;42.610;23.040;2023-01-19T14:10:58;15.52;;;8.18;;
10479;SDS011;12789;42.610;23.040;2023-01-19T14:13:26;19.45;;;5.97;;
10479;SDS011;12789;42.610;23.040;2023-01-19T14:15:55;14.30;;;4.03;;
10479;SDS011;12789;42.610;23.040;2023-01-19T14:18:24;9.82;;;3.63;;
10479;SDS011;12789;42.610;23.040;2023-01-19T14:21:07;21.00;;;7.38;;
10479;SDS011;12789;42.610;23.040;2023-01-19T14:23:36;26.08;;;10.25;;
10479;SDS011;12789;42.610;23.040;2023-01-19T14:26:03;16.67;;;4.20;;
10479;SDS011;12789;42.610;23.040;2023-01-19T14:28:34;16.27;;;4.90;;
10479;SDS011;12789;42.610;23.040;2023-01-19T14:31:19;8.55;;;3.60;;
10479;SDS011;12789;42.610;23.040;2023-01-19T14:33:49;19.48;;;4.07;;
10479;SDS011;12789;42.610;23.040;2023-01-19T14:36:24;12.50;;;4.47;;
10479;SDS011;12789;42.610;23.040;2023-01-19T14:38:52;13.30;;;3.17;;
10479;SDS011;12789;42.610;23.040;2023-01-19T14:41:23;20.20;;;5.65;;
10479;SDS011;12789;42.610;23.040;2023-01-19T14:43:50;18.38;;;7.30;;
10479;SDS011;12789;42.610;23.040;2023-01-19T14:46:20;6.07;;;3.10;;
10479;SDS011;12789;42.610;23.040;2023-01-19T14:48:47;11.82;;;3.13;;
10479;SDS011;12789;42.610;23.040;2023-01-19T14:51:15;12.13;;;3.08;;
10479;SDS011;12789;42.610;23.040;2023-01-19T14:53:46;16.08;;;7.53;;
10479;SDS011;12789;42.610;23.040;2023-01-19T14:56:22;12.13;;;3.70;;
10479;SDS011;12789;42.610;23.040;2023-01-19T14:58:50;14.40;;;4.10;;
10479;SDS011;12789;42.610;23.040;2023-01-19T15:01:16;10.98;;;3.30;;